sensor_id;sensor_type;location;lat;lon;timestamp;P1;P2;P0
62631;PMS5003;48703;51.248;-0.546;2023-06-10T00:02:34;24.40;22.80;
62631;PMS5003;48703;51.248;-0.546;2023-06-10T00:05:35;26.03;24.41;
62631;PMS5003;48703;51.248;-0.546;2023-06-10T00:08:36;25.24;23.39;
62631;PMS5003;48703;51.248;-0.546;2023-06-10T00:11:38;26.62;24.75;
62631;PMS5003;48703;51.248;-0.546;2023-06-10T00:14:39;28.03;25.43;
62631;PMS5003;48703;51.248;-0.546;2023-06-10T00:17:39;28.44;25.16;
62631;PMS5003;48703;51.248;-0.546;2023-06-10T00:20:40;26.44;22.84;
62631;PMS5003;48703;51.248;-0.546;2023-06-10T00:23:42;24.96;24.09;
62631;PMS5003;48703;51.248;-0.546;2023-06-10T00:26:43;28.01;24.59;
62631;PMS5003;48703;51.248;-0.546;2023-06-10T00:29:45;25.14;23.90;
62631;PMS5003;48703;51.248;-0.546;2023-06-10T00:32:46;25.65;24.35;
62631;PMS5003;48703;51.248;-0.546;2023-06-10T00:35:48;27.64;24.59;
62631;PMS5003;48703;51.248;-0.546;2023-06-10T00:38:48;26.38;23.55;
62631;PMS5003;48703;51.248;-0.546;2023-06-10T00:41:50;25.77;23.90;
62631;PMS5003;48703;51.248;-0.546;2023-06-10T00:44:50;25.76;23.63;
62631;PMS5003;48703;51.248;-0.546;2023-06-10T00:47:51;23.64;22.01;
62631;PMS5003;48703;51.248;-0.546;2023-06-10T00:50:53;24.96;22.74;
62631;PMS5003;48703;51.248;-0.546;2023-06-10T00:53:54;25.65;23.65;
62631;PMS5003;48703;51.248;-0.546;2023-06-10T00:56:55;27.16;24.29;
62631;PMS5003;48703;51.248;-0.546;2023-06-10T00:59:56;23.19;21.30;
62631;PMS5003;48703;51.248;-0.546;2023-06-10T01:02:58;24.91;21.42;
62631;PMS5003;48703;51.248;-0.546;2023-06-10T01:06:01;25.99;21.47;
62631;PMS5003;48703;51.248;-0.546;2023-06-10T01:09:02;24.83;23.52;
62631;PMS5003;48703;51.248;-0.546;2023-06-10T01:12:02;26.41;24.19;
62631;PMS5003;48703;51.248;-0.546;2023-06-10T01:15:03;24.37;21.44;
62631;PMS5003;48703;51.248;-0.546;2023-06-10T01:18:04;25.72;23.35;
62631;PMS5003;48703;51.248;-0.546;2023-06-10T01:21:05;23.26;21.29;
62631;PMS5003;48703;51.248;-0.546;2023-06-10T01:24:07;22.94;20.76;
62631;PMS5003;48703;51.248;-0.546;2023-06-10T01:27:09;24.99;22.61;
62631;PMS5003;48703;51.248;-0.546;2023-06-10T01:30:12;23.49;21.78;
62631;PMS5003;48703;51.248;-0.546;2023-06-10T01:33:10;24.07;20.94;
62631;PMS5003;48703;51.248;-0.546;2023-06-10T01:36:12;22.83;21.69;
62631;PMS5003;48703;51.248;-0.546;2023-06-10T01:39:13;25.22;21.62;
62631;PMS5003;48703;51.248;-0.546;2023-06-10T01:42:15;23.26;20.57;
62631;PMS5003;48703;51.248;-0.546;2023-06-10T01:45:15;23.43;21.01;
62631;PMS5003;48703;51.248;-0.546;2023-06-10T01:48:17;23.13;20.58;
62631;PMS5003;48703;51.248;-0.546;2023-06-10T01:51:18;20.93;19.34;
62631;PMS5003;48703;51.248;-0.546;2023-06-10T01:54:19;22.29;19.47;
62631;PMS5003;48703;51.248;-0.546;2023-06-10T01:57:20;20.93;18.94;
62631;PMS5003;48703;51.248;-0.546;2023-06-10T02:00:22;24.67;22.17;
62631;PMS5003;48703;51.248;-0.546;2023-06-10T02:03:24;21.65;19.55;
62631;PMS5003;48703;51.248;-0.546;2023-06-10T02:06:25;23.19;19.75;
62631;PMS5003;48703;51.248;-0.546;2023-06-10T02:09:26;24.00;21.36;
62631;PMS5003;48703;51.248;-0.546;2023-06-10T02:12:27;25.09;23.03;
62631;PMS5003;48703;51.248;-0.546;2023-06-10T02:15:28;24.80;20.93;
62631;PMS5003;48703;51.248;-0.546;2023-06-10T02:18:29;23.87;20.86;
62631;PMS5003;48703;51.248;-0.546;2023-06-10T02:21:30;23.55;22.22;
62631;PMS5003;48703;51.248;-0.546;2023-06-10T02:24:32;22.52;20.62;
62631;PMS5003;48703;51.248;-0.546;2023-06-10T02:27:34;24.10;22.06;
62631;PMS5003;48703;51.248;-0.546;2023-06-10T02:30:35;25.42;22.68;
62631;PMS5003;48703;51.248;-0.546;2023-06-10T02:33:37;23.34;19.84;
62631;PMS5003;48703;51.248;-0.546;2023-06-10T02:36:38;23.28;20.78;
62631;PMS5003;48703;51.248;-0.546;2023-06-10T02:39:39;23.59;20.47;
62631;PMS5003;48703;51.248;-0.546;2023-06-10T02:42:40;22.34;19.87;
62631;PMS5003;48703;51.248;-0.546;2023-06-10T02:45:41;23.36;21.03;
62631;PMS5003;48703;51.248;-0.546;2023-06-10T02:48:42;23.36;21.59;
62631;PMS5003;48703;51.248;-0.546;2023-06-10T02:51:43;24.26;21.29;
62631;PMS5003;48703;51.248;-0.546;2023-06-10T02:54:44;26.12;23.74;
62631;PMS5003;48703;51.248;-0.546;2023-06-10T02:57:46;26.30;23.72;
62631;PMS5003;48703;51.248;-0.546;2023-06-10T03:00:48;22.23;20.55;
62631;PMS5003;48703;51.248;-0.546;2023-06-10T03:03:49;24.93;22.48;
62631;PMS5003;48703;51.248;-0.546;2023-06-10T03:06:51;25.30;22.81;
62631;PMS5003;48703;51.248;-0.546;2023-06-10T03:09:52;21.93;21.07;
62631;PMS5003;48703;51.248;-0.546;2023-06-10T03:12:53;22.41;22.01;
62631;PMS5003;48703;51.248;-0.546;2023-06-10T03:15:54;24.16;21.75;
62631;PMS5003;48703;51.248;-0.546;2023-06-10T03:18:56;23.43;21.93;
62631;PMS5003;48703;51.248;-0.546;2023-06-10T03:21:58;22.19;20.36;
62631;PMS5003;48703;51.248;-0.546;2023-06-10T03:24:59;23.87;22.10;
62631;PMS5003;48703;51.248;-0.546;2023-06-10T03:28:00;23.03;21.25;
62631;PMS5003;48703;51.248;-0.546;2023-06-10T03:31:02;23.89;23.61;
62631;PMS5003;48703;51.248;-0.546;2023-06-10T03:34:03;24.97;22.23;
62631;PMS5003;48703;51.248;-0.546;2023-06-10T03:37:04;22.37;20.87;
62631;PMS5003;48703;51.248;-0.546;2023-06-10T03:40:07;21.37;19.00;
62631;PMS5003;48703;51.248;-0.546;2023-06-10T03:43:07;23.91;22.68;
62631;PMS5003;48703;51.248;-0.546;2023-06-10T03:46:08;26.33;23.80;
62631;PMS5003;48703;51.248;-0.546;2023-06-10T03:49:10;22.42;20.46;
62631;PMS5003;48703;51.248;-0.546;2023-06-10T03:52:11;23.03;20.76;
62631;PMS5003;48703;51.248;-0.546;2023-06-10T03:55:13;25.38;22.41;
62631;PMS5003;48703;51.248;-0.546;2023-06-10T03:58:15;23.80;20.59;
62631;PMS5003;48703;51.248;-0.546;2023-06-10T04:01:16;24.22;20.91;
62631;PMS5003;48703;51.248;-0.546;2023-06-10T04:04:17;23.09;20.29;
62631;PMS5003;48703;51.248;-0.546;2023-06-10T04:07:18;21.20;19.59;
62631;PMS5003;48703;51.248;-0.546;2023-06-10T04:10:19;22.75;21.38;
62631;PMS5003;48703;51.248;-0.546;2023-06-10T04:13:20;22.30;19.96;
62631;PMS5003;48703;51.248;-0.546;2023-06-10T04:16:21;21.00;19.83;
62631;PMS5003;48703;51.248;-0.546;2023-06-10T04:19:22;24.29;21.58;
62631;PMS5003;48703;51.248;-0.546;2023-06-10T04:22:23;21.81;19.83;
62631;PMS5003;48703;51.248;-0.546;2023-06-10T04:25:25;21.86;19.53;
62631;PMS5003;48703;51.248;-0.546;2023-06-10T04:28:27;18.46;17.24;
62631;PMS5003;48703;51.248;-0.546;2023-06-10T04:31:28;24.01;21.43;
62631;PMS5003;48703;51.248;-0.546;2023-06-10T04:34:29;23.83;21.94;
62631;PMS5003;48703;51.248;-0.546;2023-06-10T04:37:31;23.17;20.93;
62631;PMS5003;48703;51.248;-0.546;2023-06-10T04:40:32;22.57;21.35;
62631;PMS5003;48703;51.248;-0.546;2023-06-10T04:43:33;22.91;19.99;
62631;PMS5003;48703;51.248;-0.546;2023-06-10T04:46:34;23.03;20.91;
62631;PMS5003;48703;51.248;-0.546;2023-06-10T04:49:36;23.73;19.36;
62631;PMS5003;48703;51.248;-0.546;2023-06-10T04:52:37;26.07;22.71;
62631;PMS5003;48703;51.248;-0.546;2023-06-10T04:55:38;23.77;22.24;
62631;PMS5003;48703;51.248;-0.546;2023-06-10T04:58:40;23.73;19.81;
62631;PMS5003;48703;51.248;-0.546;2023-06-10T05:01:41;22.78;21.45;
62631;PMS5003;48703;51.248;-0.546;2023-06-10T05:04:43;24.80;22.87;
62631;PMS5003;48703;51.248;-0.546;2023-06-10T05:07:44;22.01;20.26;
62631;PMS5003;48703;51.248;-0.546;2023-06-10T05:10:45;23.77;21.45;
62631;PMS5003;48703;51.248;-0.546;2023-06-10T05:13:47;24.73;22.57;
62631;PMS5003;48703;51.248;-0.546;2023-06-10T05:16:48;24.72;22.46;
62631;PMS5003;48703;51.248;-0.546;2023-06-10T05:19:49;25.39;22.87;
62631;PMS5003;48703;51.248;-0.546;2023-06-10T05:22:50;24.96;21.52;
62631;PMS5003;48703;51.248;-0.546;2023-06-10T05:25:52;23.43;21.40;
62631;PMS5003;48703;51.248;-0.546;2023-06-10T05:28:53;27.10;23.17;
62631;PMS5003;48703;51.248;-0.546;2023-06-10T05:31:55;23.41;20.36;
62631;PMS5003;48703;51.248;-0.546;2023-06-10T05:34:57;23.46;21.90;
62631;PMS5003;48703;51.248;-0.546;2023-06-10T05:37:58;24.10;22.10;
62631;PMS5003;48703;51.248;-0.546;2023-06-10T05:41:00;22.36;21.71;
62631;PMS5003;48703;51.248;-0.546;2023-06-10T05:44:01;24.07;22.25;
62631;PMS5003;48703;51.248;-0.546;2023-06-10T05:47:02;21.96;20.40;
62631;PMS5003;48703;51.248;-0.546;2023-06-10T05:50:04;23.16;20.23;
62631;PMS5003;48703;51.248;-0.546;2023-06-10T05:53:04;24.84;21.31;
62631;PMS5003;48703;51.248;-0.546;2023-06-10T05:56:06;23.94;21.49;
62631;PMS5003;48703;51.248;-0.546;2023-06-10T05:59:07;25.62;22.74;
62631;PMS5003;48703;51.248;-0.546;2023-06-10T06:02:08;24.40;22.11;
62631;PMS5003;48703;51.248;-0.546;2023-06-10T06:05:11;24.86;23.54;
62631;PMS5003;48703;51.248;-0.546;2023-06-10T06:08:12;26.30;23.86;
62631;PMS5003;48703;51.248;-0.546;2023-06-10T06:11:13;25.20;22.55;
62631;PMS5003;48703;51.248;-0.546;2023-06-10T06:14:15;24.64;22.59;
62631;PMS5003;48703;51.248;-0.546;2023-06-10T06:17:17;24.01;22.01;
62631;PMS5003;48703;51.248;-0.546;2023-06-10T06:20:18;25.54;21.64;
62631;PMS5003;48703;51.248;-0.546;2023-06-10T06:23:20;26.22;23.71;
62631;PMS5003;48703;51.248;-0.546;2023-06-10T06:26:22;23.61;20.70;
62631;PMS5003;48703;51.248;-0.546;2023-06-10T06:29:24;24.53;22.34;
62631;PMS5003;48703;51.248;-0.546;2023-06-10T06:32:25;21.31;20.39;
62631;PMS5003;48703;51.248;-0.546;2023-06-10T06:35:27;24.91;22.54;
62631;PMS5003;48703;51.248;-0.546;2023-06-10T06:38:28;26.26;22.90;
62631;PMS5003;48703;51.248;-0.546;2023-06-10T06:41:29;26.00;23.99;
62631;PMS5003;48703;51.248;-0.546;2023-06-10T06:44:31;29.16;25.61;
62631;PMS5003;48703;51.248;-0.546;2023-06-10T06:47:32;26.49;24.24;
62631;PMS5003;48703;51.248;-0.546;2023-06-10T06:50:33;25.33;23.07;
62631;PMS5003;48703;51.248;-0.546;2023-06-10T06:53:34;26.64;24.71;
62631;PMS5003;48703;51.248;-0.546;2023-06-10T06:56:35;22.50;21.01;
62631;PMS5003;48703;51.248;-0.546;2023-06-10T06:59:36;25.94;22.23;
62631;PMS5003;48703;51.248;-0.546;2023-06-10T07:02:37;28.00;24.55;
62631;PMS5003;48703;51.248;-0.546;2023-06-10T07:05:38;27.01;24.74;
62631;PMS5003;48703;51.248;-0.546;2023-06-10T07:08:39;24.64;22.84;
62631;PMS5003;48703;51.248;-0.546;2023-06-10T07:11:40;22.26;21.14;
62631;PMS5003;48703;51.248;-0.546;2023-06-10T07:14:41;26.09;23.03;
62631;PMS5003;48703;51.248;-0.546;2023-06-10T07:17:43;25.61;23.03;
62631;PMS5003;48703;51.248;-0.546;2023-06-10T07:20:44;24.93;23.14;
62631;PMS5003;48703;51.248;-0.546;2023-06-10T07:23:46;22.64;21.49;
62631;PMS5003;48703;51.248;-0.546;2023-06-10T07:26:47;26.28;22.99;
62631;PMS5003;48703;51.248;-0.546;2023-06-10T07:29:48;26.29;24.00;
62631;PMS5003;48703;51.248;-0.546;2023-06-10T07:32:50;25.70;21.87;
62631;PMS5003;48703;51.248;-0.546;2023-06-10T07:35:50;22.72;21.93;
62631;PMS5003;48703;51.248;-0.546;2023-06-10T07:38:52;24.03;22.62;
62631;PMS5003;48703;51.248;-0.546;2023-06-10T07:41:54;22.67;20.19;
62631;PMS5003;48703;51.248;-0.546;2023-06-10T07:44:55;27.19;20.42;
62631;PMS5003;48703;51.248;-0.546;2023-06-10T07:47:56;27.70;24.00;
62631;PMS5003;48703;51.248;-0.546;2023-06-10T07:50:57;25.30;23.11;
62631;PMS5003;48703;51.248;-0.546;2023-06-10T07:53:58;25.80;23.17;
62631;PMS5003;48703;51.248;-0.546;2023-06-10T07:57:00;25.70;23.74;
62631;PMS5003;48703;51.248;-0.546;2023-06-10T08:00:02;25.52;23.93;
62631;PMS5003;48703;51.248;-0.546;2023-06-10T08:03:03;25.16;22.55;
62631;PMS5003;48703;51.248;-0.546;2023-06-10T08:06:04;27.16;24.34;
62631;PMS5003;48703;51.248;-0.546;2023-06-10T08:09:05;25.38;23.28;
62631;PMS5003;48703;51.248;-0.546;2023-06-10T08:12:07;24.19;22.52;
62631;PMS5003;48703;51.248;-0.546;2023-06-10T08:15:08;25.79;23.21;
62631;PMS5003;48703;51.248;-0.546;2023-06-10T08:18:10;25.36;23.59;
62631;PMS5003;48703;51.248;-0.546;2023-06-10T08:21:10;24.76;21.71;
62631;PMS5003;48703;51.248;-0.546;2023-06-10T08:24:12;25.31;23.07;
62631;PMS5003;48703;51.248;-0.546;2023-06-10T08:27:13;25.43;22.80;
62631;PMS5003;48703;51.248;-0.546;2023-06-10T08:30:15;27.87;25.78;
62631;PMS5003;48703;51.248;-0.546;2023-06-10T08:33:16;23.37;21.93;
62631;PMS5003;48703;51.248;-0.546;2023-06-10T08:36:18;27.61;25.04;
62631;PMS5003;48703;51.248;-0.546;2023-06-10T08:39:19;24.86;22.71;
62631;PMS5003;48703;51.248;-0.546;2023-06-10T08:42:22;26.67;23.53;
62631;PMS5003;48703;51.248;-0.546;2023-06-10T08:45:22;26.09;23.75;
62631;PMS5003;48703;51.248;-0.546;2023-06-10T08:48:24;26.39;24.01;
62631;PMS5003;48703;51.248;-0.546;2023-06-10T08:51:25;25.49;22.50;
62631;PMS5003;48703;51.248;-0.546;2023-06-10T08:54:27;24.50;22.70;
62631;PMS5003;48703;51.248;-0.546;2023-06-10T08:57:28;27.06;25.52;
62631;PMS5003;48703;51.248;-0.546;2023-06-10T09:00:29;24.59;22.29;
62631;PMS5003;48703;51.248;-0.546;2023-06-10T09:03:30;25.91;23.16;
62631;PMS5003;48703;51.248;-0.546;2023-06-10T09:06:31;25.75;23.80;
62631;PMS5003;48703;51.248;-0.546;2023-06-10T09:09:32;23.59;20.40;
62631;PMS5003;48703;51.248;-0.546;2023-06-10T09:12:33;23.63;22.31;
62631;PMS5003;48703;51.248;-0.546;2023-06-10T09:15:34;26.42;24.87;
62631;PMS5003;48703;51.248;-0.546;2023-06-10T09:18:36;24.91;23.06;
62631;PMS5003;48703;51.248;-0.546;2023-06-10T09:21:37;22.64;21.84;
62631;PMS5003;48703;51.248;-0.546;2023-06-10T09:24:38;23.23;21.29;
62631;PMS5003;48703;51.248;-0.546;2023-06-10T09:27:47;23.23;21.94;
62631;PMS5003;48703;51.248;-0.546;2023-06-10T09:30:40;25.39;23.46;
62631;PMS5003;48703;51.248;-0.546;2023-06-10T09:33:42;24.76;22.49;
62631;PMS5003;48703;51.248;-0.546;2023-06-10T09:36:43;24.49;22.65;
62631;PMS5003;48703;51.248;-0.546;2023-06-10T09:39:43;26.28;24.23;
62631;PMS5003;48703;51.248;-0.546;2023-06-10T09:42:45;23.61;22.23;
62631;PMS5003;48703;51.248;-0.546;2023-06-10T09:45:47;24.86;22.54;
62631;PMS5003;48703;51.248;-0.546;2023-06-10T09:48:48;24.13;21.99;
62631;PMS5003;48703;51.248;-0.546;2023-06-10T09:51:49;24.10;22.35;
62631;PMS5003;48703;51.248;-0.546;2023-06-10T09:54:50;27.20;25.21;
62631;PMS5003;48703;51.248;-0.546;2023-06-10T09:57:52;27.71;25.94;
62631;PMS5003;48703;51.248;-0.546;2023-06-10T10:00:52;25.35;23.43;
62631;PMS5003;48703;51.248;-0.546;2023-06-10T10:03:54;25.10;23.36;
62631;PMS5003;48703;51.248;-0.546;2023-06-10T10:06:55;24.36;22.61;
62631;PMS5003;48703;51.248;-0.546;2023-06-10T10:09:56;24.24;22.40;
62631;PMS5003;48703;51.248;-0.546;2023-06-10T10:12:57;25.93;25.17;
62631;PMS5003;48703;51.248;-0.546;2023-06-10T10:15:59;24.13;23.23;
62631;PMS5003;48703;51.248;-0.546;2023-06-10T10:19:01;25.43;24.01;
62631;PMS5003;48703;51.248;-0.546;2023-06-10T10:22:03;26.69;24.07;
62631;PMS5003;48703;51.248;-0.546;2023-06-10T10:25:05;26.80;26.00;
62631;PMS5003;48703;51.248;-0.546;2023-06-10T10:28:06;29.99;25.93;
62631;PMS5003;48703;51.248;-0.546;2023-06-10T10:31:05;25.16;23.41;
62631;PMS5003;48703;51.248;-0.546;2023-06-10T10:34:06;25.26;24.10;
62631;PMS5003;48703;51.248;-0.546;2023-06-10T10:37:07;26.07;24.56;
62631;PMS5003;48703;51.248;-0.546;2023-06-10T10:40:08;27.96;25.12;
62631;PMS5003;48703;51.248;-0.546;2023-06-10T10:43:09;24.00;22.06;
62631;PMS5003;48703;51.248;-0.546;2023-06-10T10:46:11;25.13;23.41;
62631;PMS5003;48703;51.248;-0.546;2023-06-10T10:49:12;26.25;24.13;
62631;PMS5003;48703;51.248;-0.546;2023-06-10T10:52:13;24.53;22.84;
62631;PMS5003;48703;51.248;-0.546;2023-06-10T10:55:14;27.49;25.28;
62631;PMS5003;48703;51.248;-0.546;2023-06-10T10:58:15;25.64;24.81;
62631;PMS5003;48703;51.248;-0.546;2023-06-10T11:01:17;28.62;26.64;
62631;PMS5003;48703;51.248;-0.546;2023-06-10T11:04:18;25.54;24.58;
62631;PMS5003;48703;51.248;-0.546;2023-06-10T11:07:20;25.14;24.39;
62631;PMS5003;48703;51.248;-0.546;2023-06-10T11:10:28;28.39;25.99;
62631;PMS5003;48703;51.248;-0.546;2023-06-10T11:13:22;27.03;25.13;
62631;PMS5003;48703;51.248;-0.546;2023-06-10T11:16:23;27.53;24.46;
62631;PMS5003;48703;51.248;-0.546;2023-06-10T11:19:32;26.56;24.39;
62631;PMS5003;48703;51.248;-0.546;2023-06-10T11:22:26;23.67;22.17;
62631;PMS5003;48703;51.248;-0.546;2023-06-10T11:25:37;26.22;25.65;
62631;PMS5003;48703;51.248;-0.546;2023-06-10T11:28:28;26.62;26.22;
62631;PMS5003;48703;51.248;-0.546;2023-06-10T11:31:29;27.63;23.51;
62631;PMS5003;48703;51.248;-0.546;2023-06-10T11:34:30;23.91;22.96;
62631;PMS5003;48703;51.248;-0.546;2023-06-10T11:37:30;20.17;19.81;
62631;PMS5003;48703;51.248;-0.546;2023-06-10T11:40:32;19.94;19.60;
62631;PMS5003;48703;51.248;-0.546;2023-06-10T11:43:33;20.97;20.10;
62631;PMS5003;48703;51.248;-0.546;2023-06-10T11:46:35;20.96;20.30;
62631;PMS5003;48703;51.248;-0.546;2023-06-10T11:49:35;23.46;22.82;
62631;PMS5003;48703;51.248;-0.546;2023-06-10T11:52:36;21.09;20.40;
62631;PMS5003;48703;51.248;-0.546;2023-06-10T11:55:41;22.59;21.32;
62631;PMS5003;48703;51.248;-0.546;2023-06-10T11:58:39;24.54;23.60;
62631;PMS5003;48703;51.248;-0.546;2023-06-10T12:01:42;22.93;22.44;
62631;PMS5003;48703;51.248;-0.546;2023-06-10T12:04:41;21.59;21.10;
62631;PMS5003;48703;51.248;-0.546;2023-06-10T12:07:42;25.39;24.03;
62631;PMS5003;48703;51.248;-0.546;2023-06-10T12:10:44;25.48;23.29;
62631;PMS5003;48703;51.248;-0.546;2023-06-10T12:13:46;24.54;23.06;
62631;PMS5003;48703;51.248;-0.546;2023-06-10T12:16:48;24.10;21.73;
62631;PMS5003;48703;51.248;-0.546;2023-06-10T12:19:48;26.28;24.48;
62631;PMS5003;48703;51.248;-0.546;2023-06-10T12:22:49;20.90;19.87;
62631;PMS5003;48703;51.248;-0.546;2023-06-10T12:25:50;22.09;20.51;
62631;PMS5003;48703;51.248;-0.546;2023-06-10T12:28:51;21.44;21.16;
62631;PMS5003;48703;51.248;-0.546;2023-06-10T12:31:55;20.44;19.24;
62631;PMS5003;48703;51.248;-0.546;2023-06-10T12:35:01;20.70;19.74;
62631;PMS5003;48703;51.248;-0.546;2023-06-10T12:37:56;20.77;19.81;
62631;PMS5003;48703;51.248;-0.546;2023-06-10T12:41:01;22.19;20.36;
62631;PMS5003;48703;51.248;-0.546;2023-06-10T12:43:57;18.89;17.49;
62631;PMS5003;48703;51.248;-0.546;2023-06-10T12:50:04;17.83;17.74;
62631;PMS5003;48703;51.248;-0.546;2023-06-10T12:53:05;18.50;17.43;
62631;PMS5003;48703;51.248;-0.546;2023-06-10T12:56:06;20.83;19.70;
62631;PMS5003;48703;51.248;-0.546;2023-06-10T12:59:07;20.39;19.90;
62631;PMS5003;48703;51.248;-0.546;2023-06-10T13:02:09;20.37;18.70;
62631;PMS5003;48703;51.248;-0.546;2023-06-10T13:05:10;20.93;19.77;
62631;PMS5003;48703;51.248;-0.546;2023-06-10T13:08:11;22.61;20.36;
62631;PMS5003;48703;51.248;-0.546;2023-06-10T13:11:12;21.73;20.54;
62631;PMS5003;48703;51.248;-0.546;2023-06-10T13:14:14;23.47;20.60;
62631;PMS5003;48703;51.248;-0.546;2023-06-10T13:17:15;21.20;19.37;
62631;PMS5003;48703;51.248;-0.546;2023-06-10T13:20:16;20.36;19.58;
62631;PMS5003;48703;51.248;-0.546;2023-06-10T13:23:17;20.94;19.56;
62631;PMS5003;48703;51.248;-0.546;2023-06-10T13:26:18;22.26;21.07;
62631;PMS5003;48703;51.248;-0.546;2023-06-10T13:29:19;23.17;22.09;
62631;PMS5003;48703;51.248;-0.546;2023-06-10T13:32:21;21.77;21.00;
62631;PMS5003;48703;51.248;-0.546;2023-06-10T13:35:22;21.87;21.28;
62631;PMS5003;48703;51.248;-0.546;2023-06-10T13:38:23;21.47;21.13;
62631;PMS5003;48703;51.248;-0.546;2023-06-10T13:41:24;20.49;20.19;
62631;PMS5003;48703;51.248;-0.546;2023-06-10T13:44:26;21.74;20.93;
62631;PMS5003;48703;51.248;-0.546;2023-06-10T13:47:27;21.93;21.86;
62631;PMS5003;48703;51.248;-0.546;2023-06-10T13:50:28;21.87;19.71;
62631;PMS5003;48703;51.248;-0.546;2023-06-10T13:53:28;21.29;20.41;
62631;PMS5003;48703;51.248;-0.546;2023-06-10T13:56:29;22.19;22.19;
62631;PMS5003;48703;51.248;-0.546;2023-06-10T13:59:30;22.49;21.09;
62631;PMS5003;48703;51.248;-0.546;2023-06-10T14:02:31;22.19;21.14;
62631;PMS5003;48703;51.248;-0.546;2023-06-10T14:05:33;22.23;21.40;
62631;PMS5003;48703;51.248;-0.546;2023-06-10T14:08:33;20.43;20.09;
62631;PMS5003;48703;51.248;-0.546;2023-06-10T14:11:34;21.10;20.37;
62631;PMS5003;48703;51.248;-0.546;2023-06-10T14:14:35;20.66;20.10;
62631;PMS5003;48703;51.248;-0.546;2023-06-10T14:17:36;22.74;21.65;
62631;PMS5003;48703;51.248;-0.546;2023-06-10T14:20:37;22.57;22.01;
62631;PMS5003;48703;51.248;-0.546;2023-06-10T14:23:39;21.49;21.49;
62631;PMS5003;48703;51.248;-0.546;2023-06-10T14:26:41;22.79;22.16;
62631;PMS5003;48703;51.248;-0.546;2023-06-10T14:29:42;22.84;22.09;
62631;PMS5003;48703;51.248;-0.546;2023-06-10T14:32:43;23.54;22.41;
62631;PMS5003;48703;51.248;-0.546;2023-06-10T14:35:44;22.39;20.56;
62631;PMS5003;48703;51.248;-0.546;2023-06-10T14:38:45;23.86;22.33;
62631;PMS5003;48703;51.248;-0.546;2023-06-10T14:41:46;24.39;21.20;
62631;PMS5003;48703;51.248;-0.546;2023-06-10T14:44:47;22.58;21.72;
62631;PMS5003;48703;51.248;-0.546;2023-06-10T14:47:48;22.76;21.41;
62631;PMS5003;48703;51.248;-0.546;2023-06-10T14:50:49;22.13;20.96;
62631;PMS5003;48703;51.248;-0.546;2023-06-10T14:53:50;20.99;20.99;
62631;PMS5003;48703;51.248;-0.546;2023-06-10T14:56:52;22.70;21.36;
62631;PMS5003;48703;51.248;-0.546;2023-06-10T14:59:53;21.29;20.67;
62631;PMS5003;48703;51.248;-0.546;2023-06-10T15:02:54;20.81;20.60;
62631;PMS5003;48703;51.248;-0.546;2023-06-10T15:05:55;20.68;20.49;
62631;PMS5003;48703;51.248;-0.546;2023-06-10T15:08:57;20.19;18.90;
62631;PMS5003;48703;51.248;-0.546;2023-06-10T15:11:58;18.46;18.03;
62631;PMS5003;48703;51.248;-0.546;2023-06-10T15:14:59;18.24;17.33;
62631;PMS5003;48703;51.248;-0.546;2023-06-10T15:18:01;21.94;21.32;
62631;PMS5003;48703;51.248;-0.546;2023-06-10T15:21:02;21.56;21.03;
62631;PMS5003;48703;51.248;-0.546;2023-06-10T15:24:03;20.13;19.59;
62631;PMS5003;48703;51.248;-0.546;2023-06-10T15:27:04;20.31;19.07;
62631;PMS5003;48703;51.248;-0.546;2023-06-10T15:30:05;20.70;19.29;
62631;PMS5003;48703;51.248;-0.546;2023-06-10T15:33:05;22.10;21.86;
62631;PMS5003;48703;51.248;-0.546;2023-06-10T15:36:06;23.07;21.94;
62631;PMS5003;48703;51.248;-0.546;2023-06-10T15:39:08;21.50;20.56;
62631;PMS5003;48703;51.248;-0.546;2023-06-10T15:42:08;21.93;21.37;
62631;PMS5003;48703;51.248;-0.546;2023-06-10T15:45:10;22.47;21.27;
62631;PMS5003;48703;51.248;-0.546;2023-06-10T15:48:10;22.44;21.47;
62631;PMS5003;48703;51.248;-0.546;2023-06-10T15:51:12;22.39;21.79;
62631;PMS5003;48703;51.248;-0.546;2023-06-10T15:54:13;22.29;19.14;
62631;PMS5003;48703;51.248;-0.546;2023-06-10T15:57:14;22.43;21.91;
62631;PMS5003;48703;51.248;-0.546;2023-06-10T16:00:15;20.25;20.01;
62631;PMS5003;48703;51.248;-0.546;2023-06-10T16:03:16;22.33;21.73;
62631;PMS5003;48703;51.248;-0.546;2023-06-10T16:06:17;20.81;20.39;
62631;PMS5003;48703;51.248;-0.546;2023-06-10T16:09:18;21.28;20.12;
62631;PMS5003;48703;51.248;-0.546;2023-06-10T16:12:18;22.33;21.56;
62631;PMS5003;48703;51.248;-0.546;2023-06-10T16:15:20;23.33;22.30;
62631;PMS5003;48703;51.248;-0.546;2023-06-10T16:18:21;23.97;22.41;
62631;PMS5003;48703;51.248;-0.546;2023-06-10T16:21:22;22.91;22.14;
62631;PMS5003;48703;51.248;-0.546;2023-06-10T16:24:23;21.42;21.07;
62631;PMS5003;48703;51.248;-0.546;2023-06-10T16:27:24;23.04;22.48;
62631;PMS5003;48703;51.248;-0.546;2023-06-10T16:30:26;23.80;23.36;
62631;PMS5003;48703;51.248;-0.546;2023-06-10T16:33:27;21.96;20.31;
62631;PMS5003;48703;51.248;-0.546;2023-06-10T16:36:28;20.29;19.34;
62631;PMS5003;48703;51.248;-0.546;2023-06-10T16:39:29;21.55;21.51;
62631;PMS5003;48703;51.248;-0.546;2023-06-10T16:42:30;24.16;22.78;
62631;PMS5003;48703;51.248;-0.546;2023-06-10T16:45:31;21.51;20.30;
62631;PMS5003;48703;51.248;-0.546;2023-06-10T16:48:33;22.17;21.14;
62631;PMS5003;48703;51.248;-0.546;2023-06-10T16:51:34;22.10;20.50;
62631;PMS5003;48703;51.248;-0.546;2023-06-10T16:54:35;23.42;22.54;
62631;PMS5003;48703;51.248;-0.546;2023-06-10T16:57:36;22.81;22.64;
62631;PMS5003;48703;51.248;-0.546;2023-06-10T17:00:37;23.94;20.87;
62631;PMS5003;48703;51.248;-0.546;2023-06-10T17:03:38;23.74;21.81;
62631;PMS5003;48703;51.248;-0.546;2023-06-10T17:06:39;23.63;23.13;
62631;PMS5003;48703;51.248;-0.546;2023-06-10T17:09:41;22.59;22.11;
62631;PMS5003;48703;51.248;-0.546;2023-06-10T17:12:42;21.51;21.30;
62631;PMS5003;48703;51.248;-0.546;2023-06-10T17:15:43;22.01;21.41;
62631;PMS5003;48703;51.248;-0.546;2023-06-10T17:18:44;23.01;21.30;
62631;PMS5003;48703;51.248;-0.546;2023-06-10T17:21:45;22.49;21.61;
62631;PMS5003;48703;51.248;-0.546;2023-06-10T17:24:46;21.89;21.61;
62631;PMS5003;48703;51.248;-0.546;2023-06-10T17:27:48;21.47;20.86;
62631;PMS5003;48703;51.248;-0.546;2023-06-10T17:30:49;20.46;19.67;
62631;PMS5003;48703;51.248;-0.546;2023-06-10T17:33:50;20.00;19.06;
62631;PMS5003;48703;51.248;-0.546;2023-06-10T17:36:51;21.29;20.54;
62631;PMS5003;48703;51.248;-0.546;2023-06-10T17:39:53;18.96;18.81;
62631;PMS5003;48703;51.248;-0.546;2023-06-10T17:42:53;22.36;21.25;
62631;PMS5003;48703;51.248;-0.546;2023-06-10T17:45:54;19.34;18.64;
62631;PMS5003;48703;51.248;-0.546;2023-06-10T17:48:55;22.60;22.21;
62631;PMS5003;48703;51.248;-0.546;2023-06-10T17:51:57;22.28;22.16;
62631;PMS5003;48703;51.248;-0.546;2023-06-10T17:54:58;21.93;20.64;
62631;PMS5003;48703;51.248;-0.546;2023-06-10T17:57:59;20.71;20.40;
62631;PMS5003;48703;51.248;-0.546;2023-06-10T18:01:01;20.36;20.36;